This is the latest recevied weather packets stored in our database for station/object PA3DZX-13. If no packets are shown the sender has not sent any weather packets the latest 10 day(s).
| Time | Temp. | Humidity | Pressure | Rain* | Wind** | Luminosity | Snow |
|---|---|---|---|---|---|---|---|
| 1777829897 | 13.89° C | 94% | 1010.7 hPa | 0 mm | - | - | - |
| 1777828995 | 13.89° C | 94% | 1010.8 hPa | 0 mm | - | - | - |
| 1777828094 | 13.89° C | 95% | 1010.7 hPa | 0 mm | - | - | - |
| 1777827194 | 13.89° C | 95% | 1010.7 hPa | 0.25 mm | - | - | - |
| 1777826294 | 13.89° C | 96% | 1010.8 hPa | 0 mm | - | - | - |
| 1777825393 | 13.89° C | 95% | 1010.8 hPa | 0 mm | - | - | - |
| 1777824493 | 15° C | 95% | 1010.6 hPa | 1.78 mm | - | - | - |
| 1777823593 | 13.89° C | 95% | 1010.7 hPa | 2.79 mm | - | - | - |
| 1777822692 | 13.89° C | 93% | 1010.7 hPa | 8.64 mm | - | - | - |
| 1777821792 | 15° C | 83% | 1010.7 hPa | 2.03 mm | - | - | - |
| 1777820892 | 16.67° C | 68% | 1010.2 hPa | 0 mm | - | - | - |
| 1777819990 | 17.78° C | 62% | 1010.1 hPa | 0 mm | - | - | - |
| 1777819090 | 17.78° C | 61% | 1010.1 hPa | 0 mm | - | - | - |
| 1777818189 | 17.78° C | 59% | 1010.2 hPa | 0 mm | - | - | - |
| 1777817288 | 17.78° C | 62% | 1010.3 hPa | 0 mm | - | - | - |
| 1777816387 | 18.89° C | 61% | 1010.1 hPa | 0 mm | - | - | - |
| 1777815487 | 18.89° C | 71% | 1010.2 hPa | 0 mm | - | - | - |
| 1777814586 | 20° C | 69% | 1010 hPa | 0 mm | - | - | - |
| 1777813685 | 20° C | 68% | 1010.2 hPa | 0 mm | - | - | - |
| 1777812784 | 20° C | 69% | 1010.2 hPa | 0 mm | - | - | - |
| 1777811884 | 20.56° C | 67% | 1010.1 hPa | 0 mm | - | - | - |
| 1777810984 | 20.56° C | 66% | 1010.1 hPa | 0 mm | - | - | - |
| 1777810083 | 20.56° C | 63% | 1010.2 hPa | 0 mm | - | - | - |
| 1777809180 | 20.56° C | 63% | 1010.2 hPa | 0 mm | - | - | - |
| 1777808280 | 20.56° C | 63% | 1010.3 hPa | 0 mm | - | - | - |
* Rain latest hour (hover to see other rain measurements)
** Current wind speed in m/s (hover to see current wind gust speed)